Airfield :
LOGIN :

Register | Disclaimer

   EN    FR    IT 

 










Legend :    VFR   Marginal VFR   IFR   Intensive IFR   Very Intensive IFR
Visi :
Ceiling :
>= 8 km
>= 3000ft
5 to 8 km
1000 to 3000 ft
1500m to 5 km
500 to 1000 ft
800 to 1500m
200 to 500 ft
< 800m
< 200 ft
Symbols :   Thunderstorms  Fog  Heavy snow  Heavy precipitations  Wind > 20 kt
SIGMETs :     Misc.  Thunderstorms  Icing  Turbulence  Mountain Waves  Volcanic Ashes






- Airport Elevation : 37 ft


EHVL - Vlieland Heliport

CURRENT METAR :
  • 070025Z AUTO 25006KT 6000 BR NCD 07/07 Q1027 WHT

EXPIRED METARs :
  • 062355Z AUTO 26006KT 6000 BR NCD 08/08 Q1026 WHT
  • 062325Z AUTO 26008KT 6000 BR NCD 08/08 Q1026 WHT
  • 062255Z AUTO 25009KT 6000 BR NCD 08/08 Q1025 WHT
  • 062245Z AUTO 25009KT 5000 BR NCD 08/08 Q1025 WHT
  • 062236Z AUTO 24008KT 5000 BR NCD 08/08 Q1025 WHT
  • 062225Z AUTO 24008KT 4200 BR NCD 08/08 Q1025 GRN
  • 062202Z AUTO 23007KT 4700 BR NCD 08/08 Q1025 GRN

Expired Forecast.



MET'MAP, your aeronautical weather chart ! - Copyright ORBIFLY December 2007 - Disclaimer

ORBIFLY MET'MAP TEAM :

Programming & Development : Alexandra Zaïnal
Concept & original design : Baudouin d'Aumeries
Assistance for programming : Marc-Olivier Méhu
Technical & hardware support : Manuel Goepfert

Contact : metmap@orbifly.com




SOURCES & CREDITS :

   NOAA